Time;durP1;ratioP1;P1;durP2;ratioP2;P2;SDS_P1;SDS_P2;PMS_P1;PMS_P2;Temp;Humidity;BMP_temperature;BMP_pressure;BME280_temperature;BME280_humidity;BME280_pressure;Samples;Min_cycle;Max_cycle;Signal;HPM_P1;HPM_P2
2024/01/26 00:01:13;;;;;;;12.17;6.03;;;;;;;19.23;52.69;102336.84;5051908;28;20578;-76
2024/01/26 00:03:39;;;;;;;14.30;7.53;;;;;;;18.67;53.94;102330.06;5048639;28;20600;-76
2024/01/26 00:06:05;;;;;;;14.70;6.63;;;;;;;18.57;54.35;102328.47;5035886;28;20381;-76
2024/01/26 00:08:30;;;;;;;14.30;6.63;;;;;;;18.24;54.99;102320.28;5052016;28;20531;-76
2024/01/26 00:10:57;;;;;;;14.37;7.07;;;;;;;18.32;55.47;102307.78;5054272;28;20029;-76
2024/01/26 00:13:22;;;;;;;10.47;5.40;;;;;;;18.41;55.11;102310.25;5052486;28;20021;-76
2024/01/26 00:15:49;;;;;;;12.00;6.70;;;;;;;18.53;53.57;102310.91;5052581;28;20033;-76
2024/01/26 00:18:14;;;;;;;11.90;5.07;;;;;;;18.72;53.38;102312.25;5052737;28;20079;-76
2024/01/26 00:20:40;;;;;;;8.20;4.97;;;;;;;17.37;58.64;102316.41;5052429;28;20409;-76
2024/01/26 00:23:05;;;;;;;9.67;5.90;;;;;;;18.38;55.01;102297.09;5052478;28;20029;-76
2024/01/26 00:25:31;;;;;;;7.53;5.07;;;;;;;18.44;54.70;102296.94;5051793;28;20037;-75
2024/01/26 00:27:57;;;;;;;10.53;5.20;;;;;;;18.73;53.42;102295.47;5052419;28;20052;-76
2024/01/26 00:30:22;;;;;;;7.07;4.63;;;;;;;18.46;53.83;102288.97;5052665;28;20400;-76
2024/01/26 00:32:48;;;;;;;8.00;4.03;;;;;;;19.20;52.91;102279.47;5053303;28;20024;-76
2024/01/26 00:35:14;;;;;;;10.50;5.37;;;;;;;18.87;52.96;102284.59;5051993;28;20115;-76
2024/01/26 00:37:40;;;;;;;9.30;4.83;;;;;;;17.84;56.85;102279.50;5051418;28;20016;-76
2024/01/26 00:40:07;;;;;;;9.17;5.07;;;;;;;19.40;52.01;102273.69;5052255;28;20032;-76
2024/01/26 00:42:32;;;;;;;8.83;4.63;;;;;;;18.69;53.24;102277.06;5051804;28;20033;-76
2024/01/26 00:44:58;;;;;;;6.97;4.30;;;;;;;18.53;53.95;102279.13;5052600;28;20028;-76
2024/01/26 00:47:24;;;;;;;7.03;4.07;;;;;;;18.98;53.20;102281.72;5053440;28;20565;-76
2024/01/26 00:49:49;;;;;;;6.87;4.10;;;;;;;18.80;52.99;102278.53;5052000;28;20597;-76
2024/01/26 00:52:15;;;;;;;7.00;4.00;;;;;;;18.67;54.24;102269.16;5053663;28;20523;-76
2024/01/26 00:54:40;;;;;;;9.40;3.90;;;;;;;19.28;51.76;102279.28;5052040;28;20028;-76
2024/01/26 00:57:06;;;;;;;7.03;4.20;;;;;;;18.44;54.55;102281.06;5052343;28;20029;-76
2024/01/26 00:59:31;;;;;;;6.93;3.57;;;;;;;18.87;53.49;102274.00;5050981;28;20111;-77
2024/01/26 01:02:00;;;;;;;6.40;3.67;;;;;;;18.96;52.17;102272.97;5051779;28;20025;-76
2024/01/26 01:04:25;;;;;;;6.00;4.10;;;;;;;19.63;51.47;102264.28;5051827;28;20025;-76
2024/01/26 01:06:54;;;;;;;7.27;4.00;;;;;;;18.77;53.12;102261.88;5048617;28;20535;-76
2024/01/26 01:09:20;;;;;;;8.47;4.70;;;;;;;19.60;51.21;102251.09;5064916;28;20037;-76
2024/01/26 01:11:45;;;;;;;7.70;3.97;;;;;;;19.16;51.77;102251.28;5050602;28;20082;-76
2024/01/26 01:14:10;;;;;;;9.73;4.30;;;;;;;19.63;50.77;102243.06;5051382;28;20034;-76
2024/01/26 01:16:39;;;;;;;6.40;4.10;;;;;;;19.60;50.97;102237.84;5051311;28;20033;-75
2024/01/26 01:19:07;;;;;;;8.50;3.83;;;;;;;19.74;50.95;102232.19;5051306;28;20033;-76
2024/01/26 01:21:32;;;;;;;10.07;3.63;;;;;;;20.00;49.83;102221.78;5047497;28;20040;-76
2024/01/26 01:23:58;;;;;;;8.00;4.47;;;;;;;19.37;51.74;102210.16;5043491;28;20029;-76
2024/01/26 01:26:23;;;;;;;8.90;4.23;;;;;;;18.42;54.40;102222.00;5051552;28;20116;-76
2024/01/26 01:28:48;;;;;;;5.23;3.83;;;;;;;18.53;54.03;102220.88;5047167;28;20483;-76
2024/01/26 01:31:14;;;;;;;6.60;3.50;;;;;;;18.69;53.56;102217.00;5034293;28;20032;-76
2024/01/26 01:33:39;;;;;;;8.03;3.83;;;;;;;19.24;53.15;102198.09;5050116;28;20044;-76
2024/01/26 01:36:05;;;;;;;6.13;3.67;;;;;;;18.25;55.13;102210.88;5050259;28;20123;-76
2024/01/26 01:38:31;;;;;;;5.87;3.50;;;;;;;19.20;52.69;102197.31;5045316;28;20029;-75
2024/01/26 01:40:56;;;;;;;6.90;4.17;;;;;;;18.40;54.57;102207.91;5060856;28;20044;-77
2024/01/26 01:43:21;;;;;;;9.47;4.47;;;;;;;18.38;53.70;102211.50;5041976;28;20458;-76
2024/01/26 01:45:47;;;;;;;6.53;4.27;;;;;;;19.02;52.97;102209.22;5048851;28;20116;-76
2024/01/26 01:48:12;;;;;;;6.23;3.43;;;;;;;17.88;56.10;102215.06;5049893;28;20111;-76
2024/01/26 01:50:38;;;;;;;6.97;4.00;;;;;;;19.11;53.20;102213.41;5050084;28;20107;-75
2024/01/26 01:53:04;;;;;;;5.97;3.30;;;;;;;18.60;54.75;102210.13;5052163;28;20029;-76
2024/01/26 01:55:30;;;;;;;14.63;4.27;;;;;;;18.85;53.39;102211.34;5051050;28;20136;-76
2024/01/26 01:57:57;;;;;;;13.03;4.23;;;;;;;18.03;57.01;102198.06;5048261;28;20112;-76
2024/01/26 02:00:23;;;;;;;5.33;3.30;;;;;;;18.47;55.03;102188.34;5040906;28;20068;-75
2024/01/26 02:02:49;;;;;;;9.77;3.93;;;;;;;18.12;55.72;102179.38;5046496;28;20040;-76
2024/01/26 02:05:16;;;;;;;7.13;3.87;;;;;;;18.18;56.12;102173.09;5049053;28;20033;-76
2024/01/26 02:07:41;;;;;;;5.67;3.60;;;;;;;18.99;53.98;102151.00;5048725;28;20039;-76
2024/01/26 02:10:07;;;;;;;6.60;4.43;;;;;;;17.78;57.48;102158.84;5049692;28;20029;-76
2024/01/26 02:12:34;;;;;;;8.30;4.00;;;;;;;19.14;53.89;102153.28;5052677;28;20086;-76
2024/01/26 02:15:00;;;;;;;7.13;4.23;;;;;;;18.64;54.23;102150.03;5050122;28;20441;-75
2024/01/26 02:17:33;;;;;;;7.90;4.70;;;;;;;17.87;56.94;102138.41;5034935;28;20021;-75
2024/01/26 02:19:58;;;;;;;;;;;;;;;18.87;54.67;102136.25;5048094;28;20365;-76
2024/01/26 02:22:24;;;;;;;7.53;4.60;;;;;;;18.81;55.17;102131.97;5054305;28;19970;-76
2024/01/26 02:24:49;;;;;;;7.60;4.30;;;;;;;18.60;56.43;102122.75;5054579;28;20029;-76
2024/01/26 02:27:14;;;;;;;7.27;4.30;;;;;;;18.70;55.85;102114.56;5054426;28;20043;-75
2024/01/26 02:29:40;;;;;;;13.00;5.27;;;;;;;18.45;57.01;102117.78;5054027;28;20079;-76
2024/01/26 02:32:07;;;;;;;8.70;3.77;;;;;;;17.85;58.63;102111.13;5050984;28;20030;-76
2024/01/26 02:34:32;;;;;;;7.60;3.87;;;;;;;17.95;57.03;102112.72;5034138;28;20036;-76
2024/01/26 02:36:58;;;;;;;7.00;4.07;;;;;;;18.76;55.21;102119.75;5036805;28;20037;-75
2024/01/26 02:39:23;;;;;;;8.60;4.20;;;;;;;18.71;56.23;102111.91;5055210;28;20422;-76
2024/01/26 02:41:49;;;;;;;6.43;3.33;;;;;;;18.08;57.43;102115.97;5052757;28;20033;-75
2024/01/26 02:44:14;;;;;;;6.23;3.70;;;;;;;18.89;55.99;102115.03;5054481;28;20044;-76
2024/01/26 02:46:39;;;;;;;10.83;4.17;;;;;;;18.14;57.79;102116.69;5053775;28;20058;-75
2024/01/26 02:49:05;;;;;;;9.20;4.63;;;;;;;18.19;57.64;102113.09;5054566;28;20075;-75
2024/01/26 02:51:31;;;;;;;9.23;4.30;;;;;;;18.36;57.33;102103.00;5053605;28;20473;-75
2024/01/26 02:53:57;;;;;;;6.50;4.30;;;;;;;18.50;56.48;102109.78;5055096;28;20029;-75
2024/01/26 02:56:23;;;;;;;8.03;4.23;;;;;;;18.75;56.28;102095.06;5054832;28;20033;-75
2024/01/26 02:58:48;;;;;;;10.23;4.83;;;;;;;19.15;54.83;102102.03;5053137;28;20205;-75
2024/01/26 03:01:13;;;;;;;7.73;4.63;;;;;;;19.36;53.42;102099.72;5053767;28;20090;-76
2024/01/26 03:03:39;;;;;;;7.70;4.80;;;;;;;18.95;55.37;102093.72;5053455;28;20473;-76
2024/01/26 03:06:05;;;;;;;8.60;4.87;;;;;;;18.51;56.74;102095.63;5054064;28;20500;-76
2024/01/26 03:08:31;;;;;;;8.60;4.27;;;;;;;18.28;58.47;102083.78;5053321;28;20433;-76
2024/01/26 03:10:57;;;;;;;8.57;5.30;;;;;;;18.27;58.02;102087.31;5050255;28;20025;-76
2024/01/26 03:13:22;;;;;;;8.47;5.17;;;;;;;18.69;57.47;102075.78;5035494;28;20052;-75
2024/01/26 03:15:49;;;;;;;9.17;5.20;;;;;;;18.19;58.21;102071.63;5053123;28;20059;-76
2024/01/26 03:18:17;;;;;;;9.70;5.50;;;;;;;18.78;56.96;102065.84;5052898;28;20037;-76
2024/01/26 03:20:42;;;;;;;11.60;5.87;;;;;;;18.47;57.06;102063.91;5053293;28;20029;-76
2024/01/26 03:23:07;;;;;;;10.33;5.63;;;;;;;17.86;58.47;102070.53;5052399;28;20055;-76
2024/01/26 03:25:33;;;;;;;12.77;5.90;;;;;;;18.22;57.90;102073.34;5053378;28;20020;-75
2024/01/26 03:27:59;;;;;;;15.87;6.40;;;;;;;18.81;55.81;102065.75;5053218;28;20453;-76
2024/01/26 03:30:25;;;;;;;11.30;6.10;;;;;;;17.86;59.98;102054.66;5053635;28;20029;-76
2024/01/26 03:32:51;;;;;;;9.87;6.03;;;;;;;18.30;59.57;102052.88;5052972;28;20024;-76
2024/01/26 03:35:16;;;;;;;12.10;6.33;;;;;;;18.29;59.30;102040.53;5053147;28;20016;-75
2024/01/26 03:37:42;;;;;;;12.17;5.87;;;;;;;19.11;56.39;102039.41;5052512;28;20079;-75
2024/01/26 03:40:08;;;;;;;12.17;6.90;;;;;;;18.73;56.49;102028.00;5054518;28;20029;-75
2024/01/26 03:42:33;;;;;;;15.70;7.23;;;;;;;18.90;56.81;102021.44;5052842;28;20029;-75
2024/01/26 03:44:59;;;;;;;11.03;6.90;;;;;;;18.64;56.19;102033.50;5052766;28;20029;-76
2024/01/26 03:47:25;;;;;;;19.03;7.87;;;;;;;18.69;58.08;102026.34;5052542;28;20024;-75
2024/01/26 03:49:50;;;;;;;11.57;6.73;;;;;;;18.94;57.38;102031.03;5052679;28;20052;-75
2024/01/26 03:52:15;;;;;;;13.57;7.47;;;;;;;18.58;57.92;102028.38;5054268;28;20029;-75
2024/01/26 03:54:41;;;;;;;18.50;7.87;;;;;;;18.91;57.11;102024.03;5052867;28;20079;-76
2024/01/26 03:57:06;;;;;;;12.37;7.30;;;;;;;19.25;55.49;102009.03;5052933;28;20469;-75
2024/01/26 03:59:32;;;;;;;14.97;7.63;;;;;;;18.64;57.25;101997.34;5050943;28;20036;-76
2024/01/26 04:01:57;;;;;;;17.07;7.33;;;;;;;19.08;55.78;102015.66;5051701;28;20408;-76
2024/01/26 04:04:23;;;;;;;15.77;7.47;;;;;;;18.67;56.84;102006.97;5052377;28;20123;-76
2024/01/26 04:06:49;;;;;;;14.57;7.47;;;;;;;18.33;57.35;102004.25;5052668;28;20136;-76
2024/01/26 04:09:14;;;;;;;13.93;7.90;;;;;;;19.07;56.05;102000.66;5051014;28;20025;-76
2024/01/26 04:11:39;;;;;;;12.70;7.13;;;;;;;18.07;59.34;101998.69;5052432;28;20039;-76
2024/01/26 04:14:05;;;;;;;14.60;7.43;;;;;;;18.46;58.13;101977.50;5050876;28;20029;-76
2024/01/26 04:16:31;;;;;;;12.23;7.33;;;;;;;18.99;57.08;101976.16;5051137;28;20392;-76
2024/01/26 04:18:56;;;;;;;15.67;7.70;;;;;;;18.69;58.54;101962.78;5051082;28;20029;-76
2024/01/26 04:21:22;;;;;;;13.03;6.80;;;;;;;17.35;62.41;101968.50;5051994;28;20033;-76
2024/01/26 04:23:47;;;;;;;11.90;7.07;;;;;;;18.12;61.29;101973.00;5053031;28;20028;-76
2024/01/26 04:26:14;;;;;;;11.13;6.97;;;;;;;18.32;59.70;101955.78;5051979;28;20106;-75
2024/01/26 04:28:40;;;;;;;14.10;8.40;;;;;;;18.30;60.30;101949.66;5051460;28;20028;-76
2024/01/26 04:31:05;;;;;;;13.23;7.97;;;;;;;18.23;60.05;101942.75;5052250;28;20025;-75
2024/01/26 04:33:30;;;;;;;16.23;7.93;;;;;;;17.94;61.41;101941.69;5052277;28;20051;-75
2024/01/26 04:35:56;;;;;;;18.43;7.90;;;;;;;18.05;61.70;101939.69;5051600;28;20028;-75
2024/01/26 04:38:21;;;;;;;17.27;8.77;;;;;;;18.16;62.05;101930.59;5051886;28;20064;-76
2024/01/26 04:40:47;;;;;;;15.10;8.73;;;;;;;18.28;60.92;101940.88;5052436;28;20060;-77
2024/01/26 04:43:12;;;;;;;15.07;9.13;;;;;;;18.00;62.61;101935.38;5052463;28;20032;-76
2024/01/26 04:45:37;;;;;;;20.03;7.93;;;;;;;17.51;64.17;101934.69;5051837;28;20442;-76
2024/01/26 04:48:04;;;;;;;16.23;8.27;;;;;;;18.23;61.48;101921.59;5052085;28;20063;-77
2024/01/26 04:50:30;;;;;;;16.07;7.70;;;;;;;17.07;66.50;101922.34;5051852;28;20068;-77
2024/01/26 04:52:55;;;;;;;16.67;7.87;;;;;;;18.42;62.74;101932.59;5048711;28;20421;-78
2024/01/26 04:55:26;;;;;;;17.87;9.10;;;;;;;18.72;59.91;101919.47;5049083;28;20101;-79
2024/01/26 04:57:51;;;;;;;15.37;8.17;;;;;;;18.54;60.40;101918.19;5035211;28;20031;-79
2024/01/26 05:00:18;;;;;;;16.33;8.90;;;;;;;18.54;61.44;101920.81;5052661;28;20123;-79
2024/01/26 05:02:43;;;;;;;14.33;7.93;;;;;;;18.30;62.57;101907.31;5048482;28;20078;-78
2024/01/26 05:05:11;;;;;;;16.43;8.17;;;;;;;18.18;62.78;101897.03;5032588;28;20025;-78
2024/01/26 05:07:37;;;;;;;15.43;8.27;;;;;;;18.02;63.58;101897.41;5033762;28;20028;-77
2024/01/26 05:10:03;;;;;;;13.47;8.40;;;;;;;17.78;66.88;101909.41;5052098;28;20033;-77
2024/01/26 05:12:29;;;;;;;13.90;7.93;;;;;;;17.38;67.10;101894.44;5051758;28;20051;-77
2024/01/26 05:14:55;;;;;;;13.97;8.37;;;;;;;18.64;61.58;101885.22;5051762;28;20179;-76
2024/01/26 05:17:20;;;;;;;15.07;8.43;;;;;;;18.25;64.08;101883.59;5051269;28;20088;-76
2024/01/26 05:19:46;;;;;;;16.33;8.27;;;;;;;18.78;63.65;101875.16;5050479;28;20118;-75
2024/01/26 05:22:11;;;;;;;17.60;8.33;;;;;;;17.90;64.82;101871.22;5051180;28;20036;-75
2024/01/26 05:24:36;;;;;;;28.07;8.70;;;;;;;17.66;66.00;101868.25;5050299;28;20504;-75
2024/01/26 05:27:02;;;;;;;18.23;8.23;;;;;;;17.58;66.03;101876.34;5051294;28;20102;-75
2024/01/26 05:29:28;;;;;;;11.70;7.43;;;;;;;17.68;68.14;101884.06;5051580;28;20126;-76
2024/01/26 05:31:54;;;;;;;15.23;8.23;;;;;;;17.28;67.64;101867.34;5050701;28;20032;-76
2024/01/26 05:34:19;;;;;;;15.57;8.63;;;;;;;17.94;65.46;101862.34;5052754;28;20040;-76
2024/01/26 05:36:44;;;;;;;12.70;7.37;;;;;;;17.80;68.63;101860.88;5050790;28;20033;-75
2024/01/26 05:39:10;;;;;;;12.57;6.97;;;;;;;17.97;66.65;101875.50;5052126;28;20029;-75
2024/01/26 05:41:36;;;;;;;12.77;7.37;;;;;;;17.28;69.54;101862.06;5051731;28;20037;-76
2024/01/26 05:44:02;;;;;;;11.37;7.27;;;;;;;17.78;68.21;101856.53;5059054;28;20111;-76
2024/01/26 05:46:27;;;;;;;11.53;7.03;;;;;;;17.59;67.50;101870.16;5050211;28;20029;-76
2024/01/26 05:48:53;;;;;;;13.00;8.00;;;;;;;18.14;65.68;101865.34;5052160;28;20128;-76
2024/01/26 05:51:18;;;;;;;11.67;6.90;;;;;;;18.01;65.54;101863.94;5050537;28;20032;-76
2024/01/26 05:53:43;;;;;;;11.70;7.30;;;;;;;18.00;65.04;101856.91;5050767;28;20099;-76
2024/01/26 05:56:09;;;;;;;12.10;6.50;;;;;;;17.78;67.97;101851.25;5051288;28;20128;-76
2024/01/26 05:58:34;;;;;;;11.13;6.97;;;;;;;17.67;67.59;101837.38;5050845;28;20029;-76
2024/01/26 06:01:00;;;;;;;11.33;6.53;;;;;;;18.60;63.05;101831.50;5051119;28;20040;-76
2024/01/26 06:03:25;;;;;;;12.03;6.47;;;;;;;18.02;66.38;101849.78;5051069;28;20033;-76
2024/01/26 06:05:51;;;;;;;9.83;6.47;;;;;;;17.85;67.52;101849.31;5050608;28;20025;-77
2024/01/26 06:08:16;;;;;;;9.17;5.63;;;;;;;17.59;69.43;101856.09;5051173;28;20028;-76
2024/01/26 06:10:41;;;;;;;13.27;7.27;;;;;;;17.67;67.50;101854.13;5050756;28;20021;-77
2024/01/26 06:13:07;;;;;;;11.40;6.13;;;;;;;17.87;67.36;101839.56;5050713;28;20013;-76
2024/01/26 06:15:35;;;;;;;10.47;6.57;;;;;;;18.12;65.28;101843.38;5049946;28;20028;-76
2024/01/26 06:18:00;;;;;;;13.70;5.93;;;;;;;17.56;68.65;101845.59;5051663;28;20036;-75
2024/01/26 06:20:30;;;;;;;12.70;6.53;;;;;;;16.88;71.25;101832.03;5050891;28;20489;-76
2024/01/26 06:22:56;;;;;;;14.93;7.03;;;;;;;17.33;70.85;101849.63;5049711;28;20021;-76
2024/01/26 06:25:22;;;;;;;11.53;6.80;;;;;;;18.19;65.74;101848.50;5049929;28;20029;-75
2024/01/26 06:27:47;;;;;;;11.30;7.20;;;;;;;18.50;63.62;101834.47;5050183;28;20109;-75
2024/01/26 06:30:13;;;;;;;12.83;6.37;;;;;;;17.41;68.54;101826.53;5051124;28;20039;-75
2024/01/26 06:32:38;;;;;;;13.13;7.10;;;;;;;17.63;68.16;101839.25;5045597;28;20025;-75
2024/01/26 06:35:04;;;;;;;12.93;7.33;;;;;;;16.69;73.16;101836.84;5043356;28;20523;-75
2024/01/26 06:37:30;;;;;;;11.90;6.90;;;;;;;17.51;71.69;101842.19;5029795;28;20433;-75
2024/01/26 06:39:55;;;;;;;11.27;6.70;;;;;;;17.52;72.65;101828.06;5045948;28;20111;-75
2024/01/26 06:42:25;;;;;;;12.63;7.53;;;;;;;17.54;69.24;101831.53;5049437;28;20338;-75
2024/01/26 06:44:53;;;;;;;10.80;6.47;;;;;;;17.16;71.08;101839.44;5050509;28;20033;-75
2024/01/26 06:47:19;;;;;;;14.20;7.20;;;;;;;16.94;72.95;101841.66;5051079;28;20036;-75
2024/01/26 06:49:45;;;;;;;13.57;6.73;;;;;;;17.54;70.55;101826.25;5050383;28;20045;-75
2024/01/26 06:52:10;;;;;;;13.30;6.73;;;;;;;17.45;69.52;101830.84;5049625;28;20032;-76
2024/01/26 06:54:38;;;;;;;9.53;6.30;;;;;;;16.96;73.01;101845.13;5050230;28;20035;-75
2024/01/26 06:57:04;;;;;;;12.33;6.90;;;;;;;17.32;73.47;101850.50;5050204;28;20021;-75
2024/01/26 06:59:29;;;;;;;10.97;6.60;;;;;;;17.39;70.27;101831.00;5052738;28;20031;-75
2024/01/26 07:01:55;;;;;;;11.50;5.90;;;;;;;17.58;69.78;101835.84;5053020;28;20028;-75
2024/01/26 07:04:20;;;;;;;12.33;6.37;;;;;;;18.40;65.85;101834.69;5053477;28;20059;-75
2024/01/26 07:06:46;;;;;;;10.37;6.23;;;;;;;17.89;67.56;101837.75;5054247;28;20024;-75
2024/01/26 07:09:11;;;;;;;8.03;5.40;;;;;;;17.86;68.38;101835.16;5053995;28;20032;-75
2024/01/26 07:11:38;;;;;;;8.93;5.20;;;;;;;17.39;70.87;101849.50;5053427;28;20075;-75
2024/01/26 07:14:04;;;;;;;9.20;4.97;;;;;;;17.64;69.94;101859.50;5050054;28;20037;-75
2024/01/26 07:16:29;;;;;;;10.47;6.07;;;;;;;17.95;68.08;101862.28;5047150;28;20044;-75
2024/01/26 07:18:55;;;;;;;11.53;6.10;;;;;;;18.72;65.56;101846.16;5048512;28;20029;-74
2024/01/26 07:21:21;;;;;;;11.20;5.80;;;;;;;17.79;70.96;101840.63;5051833;28;20021;-75
2024/01/26 07:23:49;;;;;;;7.80;5.50;;;;;;;16.90;75.58;101855.81;5050780;28;20511;-75
2024/01/26 07:26:21;;;;;;;11.30;5.47;;;;;;;18.20;69.54;101858.16;5052202;28;20128;-75
2024/01/26 07:28:47;;;;;;;8.25;5.05;;;;;;;17.01;74.32;101863.50;5052412;28;20021;-75
2024/01/26 07:31:13;;;;;;;10.33;6.10;;;;;;;18.08;69.65;101854.94;5051770;28;20032;-75
2024/01/26 07:33:39;;;;;;;8.87;5.73;;;;;;;18.21;67.93;101854.63;5053392;28;20032;-75
2024/01/26 07:36:05;;;;;;;9.37;5.83;;;;;;;18.35;67.53;101851.63;5053618;28;20033;-74
2024/01/26 07:38:30;;;;;;;10.27;6.20;;;;;;;17.63;71.11;101860.41;5051782;28;20036;-74
2024/01/26 07:40:57;;;;;;;10.70;5.40;;;;;;;17.52;73.03;101875.66;5053346;28;20025;-75
2024/01/26 07:43:23;;;;;;;8.93;5.53;;;;;;;18.11;68.00;101865.44;5051836;28;20044;-73
2024/01/26 07:45:48;;;;;;;8.03;5.67;;;;;;;17.84;68.04;101871.38;5050443;28;20820;-74
2024/01/26 07:48:14;;;;;;;12.27;5.60;;;;;;;17.52;70.48;101881.78;5052305;28;20095;-74
2024/01/26 07:50:43;;;;;;;10.63;5.17;;;;;;;18.10;67.37;101879.56;5048055;28;20061;-74
2024/01/26 07:53:09;;;;;;;8.23;4.77;;;;;;;18.00;67.41;101885.13;5046161;28;20029;-74
2024/01/26 07:55:35;;;;;;;8.60;4.20;;;;;;;18.53;65.66;101882.88;5062538;28;20086;-74
2024/01/26 07:58:01;;;;;;;16.90;4.33;;;;;;;17.16;72.41;101883.44;5047777;28;20041;-74
2024/01/26 08:00:27;;;;;;;17.17;4.03;;;;;;;17.61;68.73;101870.13;5032319;28;20396;-74
2024/01/26 08:02:52;;;;;;;6.50;2.50;;;;;;;17.27;71.36;101892.03;5045221;28;20047;-74
2024/01/26 08:05:18;;;;;;;10.97;3.33;;;;;;;18.74;63.81;101881.44;5051370;28;20481;-74
2024/01/26 08:07:43;;;;;;;6.30;2.80;;;;;;;17.63;67.89;101884.19;5052187;28;20033;-74
2024/01/26 08:10:09;;;;;;;9.40;2.47;;;;;;;18.29;64.92;101887.06;5050769;28;20033;-74
2024/01/26 08:12:35;;;;;;;6.87;2.20;;;;;;;17.57;70.42;101909.00;5051854;28;20031;-74
2024/01/26 08:15:01;;;;;;;8.15;2.13;;;;;;;18.41;66.09;101899.97;5051579;28;20112;-74
2024/01/26 08:17:27;;;;;;;9.87;2.63;;;;;;;17.98;68.66;101906.31;5051512;28;20462;-74
2024/01/26 08:19:52;;;;;;;4.77;1.53;;;;;;;17.50;70.26;101911.81;5046877;28;20025;-74
2024/01/26 08:22:18;;;;;;;8.73;1.77;;;;;;;17.15;72.67;101935.44;5048007;28;20025;-75
2024/01/26 08:24:43;;;;;;;4.07;1.50;;;;;;;17.57;68.95;101916.03;5042823;28;20396;-75
2024/01/26 08:27:08;;;;;;;11.53;2.17;;;;;;;17.48;68.93;101937.41;5051420;28;20044;-75
2024/01/26 08:29:34;;;;;;;2.80;1.50;;;;;;;17.22;70.44;101933.53;5047561;28;20495;-74
2024/01/26 08:31:59;;;;;;;2.77;1.30;;;;;;;17.89;65.66;101932.97;5036923;28;20028;-75
2024/01/26 08:34:25;;;;;;;8.60;1.23;;;;;;;16.36;71.28;101955.31;5051764;28;20065;-76
2024/01/26 08:36:50;;;;;;;7.27;1.37;;;;;;;16.39;72.80;101960.53;5053000;28;20112;-74
2024/01/26 08:39:16;;;;;;;6.77;1.50;;;;;;;16.53;72.95;101967.34;5050569;28;20444;-75
2024/01/26 08:41:43;;;;;;;14.07;1.73;;;;;;;16.92;70.68;101991.31;5049820;28;20481;-75
2024/01/26 08:44:10;;;;;;;13.33;2.10;;;;;;;17.40;64.96;101999.19;5050774;28;20029;-75
2024/01/26 08:46:35;;;;;;;9.53;1.47;;;;;;;19.98;52.38;102021.94;5050030;28;20109;-75
2024/01/26 08:49:01;;;;;;;7.10;1.40;;;;;;;18.77;52.49;102032.31;5051127;28;20077;-78
2024/01/26 08:51:26;;;;;;;14.27;2.80;;;;;;;18.34;53.83;102046.59;5050935;28;20400;-75
2024/01/26 08:53:52;;;;;;;7.93;1.47;;;;;;;18.99;52.56;102045.91;5047239;28;20072;-75
2024/01/26 08:56:17;;;;;;;8.80;1.87;;;;;;;19.66;50.15;102052.06;5061496;28;20469;-75
2024/01/26 08:58:42;;;;;;;8.73;1.43;;;;;;;19.89;49.96;102047.88;5050036;28;20028;-75
2024/01/26 09:01:08;;;;;;;9.77;2.07;;;;;;;20.24;48.23;102061.88;5050788;28;20108;-75
2024/01/26 09:03:34;;;;;;;10.33;1.50;;;;;;;20.81;45.71;102042.31;5051192;28;20036;-75
2024/01/26 09:06:00;;;;;;;8.50;1.80;;;;;;;20.26;47.48;102036.13;5050163;28;20099;-75
2024/01/26 09:08:25;;;;;;;8.40;1.33;;;;;;;21.38;43.94;102055.41;5049370;28;20024;-74
2024/01/26 09:10:50;;;;;;;10.63;1.43;;;;;;;21.99;42.62;102068.22;5049058;28;20095;-74
2024/01/26 09:13:16;;;;;;;6.97;1.10;;;;;;;20.59;43.42;102075.78;5051124;28;20465;-74
2024/01/26 09:15:42;;;;;;;9.70;1.53;;;;;;;18.60;47.91;102084.81;5050228;28;20021;-74
2024/01/26 09:18:08;;;;;;;4.87;1.03;;;;;;;18.75;46.26;102071.22;5051252;28;20477;-74
2024/01/26 09:20:34;;;;;;;7.27;2.00;;;;;;;20.39;44.79;102069.34;5049950;28;20058;-74
2024/01/26 09:22:59;;;;;;;4.47;0.90;;;;;;;19.77;45.12;102092.38;5049881;28;20366;-74
2024/01/26 09:25:25;;;;;;;8.27;1.47;;;;;;;20.25;44.32;102108.69;5051056;28;20090;-74
2024/01/26 09:27:50;;;;;;;5.67;0.77;;;;;;;19.17;47.08;102123.19;5049123;28;20496;-74
2024/01/26 09:30:16;;;;;;;7.23;1.13;;;;;;;18.33;48.12;102147.19;5049011;28;20120;-74
2024/01/26 09:32:41;;;;;;;6.13;1.40;;;;;;;18.74;47.55;102151.56;5048203;28;20103;-74
2024/01/26 09:35:10;;;;;;;15.03;2.10;;;;;;;18.01;47.71;102160.22;5049283;28;20036;-74
2024/01/26 09:37:36;;;;;;;7.20;1.27;;;;;;;17.92;44.25;102160.38;5049868;28;20100;-76
2024/01/26 09:40:02;;;;;;;7.47;0.60;;;;;;;17.74;44.84;102186.25;5049621;28;20029;-74
2024/01/26 09:42:27;;;;;;;18.93;5.60;;;;;;;18.63;40.96;102201.25;5050363;28;20028;-74
2024/01/26 09:44:54;;;;;;;2.97;0.77;;;;;;;17.67;41.36;102208.41;5049543;28;20123;-73
2024/01/26 09:47:21;;;;;;;4.53;0.90;;;;;;;17.66;41.81;102222.53;5050878;28;20033;-74
2024/01/26 09:49:55;;;;;;;1.13;0.50;;;;;;;17.34;40.61;102226.59;5049104;28;20482;-74
2024/01/26 09:52:21;;;;;;;11.17;0.97;;;;;;;17.62;40.13;102236.72;5047948;28;20035;-75
2024/01/26 09:54:47;;;;;;;4.77;1.03;;;;;;;17.67;39.86;102250.72;5048939;28;20025;-75
2024/01/26 09:57:14;;;;;;;1.40;0.60;;;;;;;16.29;41.43;102262.31;5049279;28;20071;-76
2024/01/26 09:59:39;;;;;;;4.27;0.73;;;;;;;16.85;41.04;102280.13;5048275;28;20040;-75
2024/01/26 10:02:06;;;;;;;5.00;1.00;;;;;;;17.06;40.02;102301.00;5048436;28;20021;-75
2024/01/26 10:04:32;;;;;;;2.00;0.53;;;;;;;17.12;40.46;102290.34;5049127;28;20039;-74
2024/01/26 10:06:58;;;;;;;4.43;0.80;;;;;;;16.85;40.01;102307.41;5045954;28;20027;-74
2024/01/26 10:09:24;;;;;;;2.17;0.40;;;;;;;16.93;39.11;102300.28;5029254;28;20471;-74
2024/01/26 10:11:50;;;;;;;4.73;2.00;;;;;;;17.17;39.90;102329.88;5037459;28;20095;-74
2024/01/26 10:14:22;;;;;;;4.47;0.73;;;;;;;18.29;37.78;102318.44;5050164;28;20104;-74
2024/01/26 10:16:58;;;;;;;2.10;0.70;;;;;;;17.79;38.08;102327.19;5048566;28;20028;-74
2024/01/26 10:19:27;;;;;;;8.73;1.30;;;;;;;19.00;35.98;102330.28;5049673;28;20025;-74
2024/01/26 10:21:56;;;;;;;6.03;1.10;;;;;;;17.84;38.27;102360.63;5049436;28;20029;-74
2024/01/26 10:24:23;;;;;;;7.90;0.90;;;;;;;17.03;39.37;102364.41;5048598;28;20194;-74
2024/01/26 10:26:53;;;;;;;5.17;0.70;;;;;;;17.13;39.74;102360.78;5049276;28;20653;-74
2024/01/26 10:29:19;;;;;;;5.80;0.57;;;;;;;16.52;39.60;102361.47;5049411;28;20037;-73
2024/01/26 10:31:46;;;;;;;15.63;1.70;;;;;;;16.96;38.65;102371.53;5047757;28;20028;-74
2024/01/26 10:34:17;;;;;;;1.73;0.50;;;;;;;17.29;38.17;102392.28;5051778;28;20469;-74
2024/01/26 10:36:44;;;;;;;5.13;1.03;;;;;;;17.32;37.74;102392.22;5051943;28;20509;-74
2024/01/26 10:39:24;;;;;;;2.37;0.63;;;;;;;16.53;39.44;102394.91;5069624;28;20041;-73
2024/01/26 10:41:54;;;;;;;2.47;0.73;;;;;;;16.51;39.12;102418.66;5049940;28;20031;-74
2024/01/26 10:44:21;;;;;;;5.20;0.47;;;;;;;18.12;36.87;102417.50;5054368;28;20040;-74
2024/01/26 10:46:47;;;;;;;4.10;0.93;;;;;;;17.26;37.38;102408.19;5051819;28;20025;-74
2024/01/26 10:49:12;;;;;;;8.30;1.20;;;;;;;16.62;37.88;102411.53;5053409;28;20117;-73
2024/01/26 10:51:42;;;;;;;4.00;0.57;;;;;;;17.76;36.22;102430.41;5051982;28;20556;-73
2024/01/26 10:54:12;;;;;;;6.13;0.53;;;;;;;16.96;36.36;102447.28;5050176;28;20029;-74
2024/01/26 10:56:39;;;;;;;0.57;0.57;;;;;;;17.28;36.82;102443.38;5052846;28;20029;-74
2024/01/26 10:59:07;;;;;;;6.47;0.60;;;;;;;17.64;35.81;102457.00;5052843;28;20017;-72
2024/01/26 11:01:33;;;;;;;8.43;0.80;;;;;;;16.75;37.10;102465.06;5053033;28;20048;-74
2024/01/26 11:04:00;;;;;;;6.27;1.43;;;;;;;17.06;36.60;102480.63;5053983;28;20035;-74
2024/01/26 11:06:32;;;;;;;4.30;0.73;;;;;;;16.47;37.25;102482.03;5052504;28;20029;-73
2024/01/26 11:08:59;;;;;;;7.00;1.33;;;;;;;17.18;36.42;102473.44;5053413;28;20059;-73
2024/01/26 11:11:29;;;;;;;4.10;1.00;;;;;;;18.26;34.57;102477.28;5051870;28;20056;-74
2024/01/26 11:13:59;;;;;;;2.87;0.80;;;;;;;16.99;36.27;102500.06;5051858;28;20021;-74
2024/01/26 11:16:24;;;;;;;8.40;0.70;;;;;;;16.64;37.81;102509.19;5053216;28;20027;-73